Time;durP1;ratioP1;P1;durP2;ratioP2;P2;SDS_P1;SDS_P2;PMS_P1;PMS_P2;Temp;Humidity;BMP_temperature;BMP_pressure;BME280_temperature;BME280_humidity;BME280_pressure;Samples;Min_cycle;Max_cycle;Signal;HPM_P1;HPM_P2
2023/08/10 00:00:12;;;;;;;8.18;1.15;;;16.10;99.90;;;;;;5072657;28;20102;-79
2023/08/10 00:02:58;;;;;;;10.63;2.25;;;16.00;99.90;;;;;;5054200;28;20048;-81
2023/08/10 00:05:44;;;;;;;6.55;1.55;;;16.00;99.90;;;;;;5073595;28;20086;-80
2023/08/10 00:08:30;;;;;;;7.55;1.60;;;16.00;99.90;;;;;;5072542;28;20052;-80
2023/08/10 00:11:16;;;;;;;10.43;1.75;;;15.90;99.90;;;;;;5073521;28;20143;-79
2023/08/10 00:14:03;;;;;;;10.63;1.50;;;15.90;99.90;;;;;;5072157;28;20076;-80
2023/08/10 00:16:50;;;;;;;11.57;1.65;;;15.90;99.90;;;;;;5073809;28;20353;-79
2023/08/10 00:19:36;;;;;;;8.15;1.40;;;15.90;99.90;;;;;;5072188;28;20086;-80
2023/08/10 00:22:22;;;;;;;10.77;1.50;;;15.90;99.90;;;;;;5055802;28;20049;-80
2023/08/10 00:25:08;;;;;;;8.25;1.40;;;15.90;99.90;;;;;;5072404;28;20044;-80
2023/08/10 00:27:55;;;;;;;8.85;2.22;;;15.90;99.90;;;;;;5072091;28;20086;-80
2023/08/10 00:30:41;;;;;;;11.07;1.60;;;15.80;99.90;;;;;;5055710;28;20052;-80
2023/08/10 00:33:27;;;;;;;11.85;1.40;;;15.90;99.90;;;;;;5073416;28;20052;-80
2023/08/10 00:36:14;;;;;;;9.10;1.52;;;15.90;99.90;;;;;;5055567;28;20052;-80
2023/08/10 00:39:00;;;;;;;15.77;2.25;;;15.90;99.90;;;;;;5071856;28;20049;-80
2023/08/10 00:41:46;;;;;;;5.90;1.48;;;15.90;99.90;;;;;;5072994;28;20072;-79
2023/08/10 00:44:32;;;;;;;13.38;1.70;;;15.90;99.90;;;;;;5053862;28;20056;-80
2023/08/10 00:47:19;;;;;;;9.48;1.63;;;15.90;99.90;;;;;;5072851;28;20048;-79
2023/08/10 00:50:06;;;;;;;5.72;1.10;;;16.00;99.90;;;;;;5071605;28;20045;-80
2023/08/10 00:52:53;;;;;;;8.48;1.45;;;15.90;99.90;;;;;;5071591;28;20063;-80
2023/08/10 00:55:39;;;;;;;9.45;1.48;;;15.90;99.90;;;;;;5072870;28;20053;-80
2023/08/10 00:58:27;;;;;;;12.13;2.47;;;15.90;99.90;;;;;;5039864;28;20084;-80
2023/08/10 01:01:13;;;;;;;13.73;1.70;;;15.90;99.90;;;;;;5071122;28;20056;-79
2023/08/10 01:03:59;;;;;;;11.23;2.38;;;15.80;99.90;;;;;;5072859;28;20438;-80
2023/08/10 01:06:57;;;;;;;15.25;2.35;;;15.80;99.90;;;;;;5072671;28;20041;-80
2023/08/10 01:09:49;;;;;;;6.93;1.30;;;15.80;99.90;;;;;;5070375;28;20059;-80
2023/08/10 01:12:54;;;;;;;10.25;1.55;;;15.80;99.90;;;;;;5052407;28;20076;-80
2023/08/10 01:15:49;;;;;;;7.45;2.25;;;15.80;99.90;;;;;;5053216;28;20063;-80
2023/08/10 01:18:37;;;;;;;6.80;2.08;;;15.80;99.90;;;;;;5071590;28;20048;-79
2023/08/10 01:21:37;;;;;;;8.57;1.73;;;15.70;99.90;;;;;;5070324;28;20059;-79
2023/08/10 01:24:30;;;;;;;7.82;2.20;;;15.70;99.90;;;;;;5052556;28;20398;-80
2023/08/10 01:27:16;;;;;;;5.43;1.23;;;15.70;99.90;;;;;;5069800;28;20044;-80
2023/08/10 01:30:04;;;;;;;8.20;1.33;;;15.60;99.90;;;;;;5052823;28;20748;-80
2023/08/10 01:32:53;;;;;;;9.07;1.70;;;15.60;99.90;;;;;;5052017;28;20091;-80
2023/08/10 01:35:39;;;;;;;9.90;1.33;;;15.60;99.90;;;;;;5071912;28;20055;-80
2023/08/10 01:38:25;;;;;;;6.63;1.35;;;15.60;99.90;;;;;;5040229;28;20055;-80
2023/08/10 01:41:11;;;;;;;9.70;1.48;;;15.60;99.90;;;;;;5070681;28;20040;-80
2023/08/10 01:43:58;;;;;;;8.43;2.03;;;15.60;99.90;;;;;;5054409;28;20144;-80
2023/08/10 01:46:48;;;;;;;5.82;1.63;;;15.50;99.90;;;;;;5052121;28;20106;-80
2023/08/10 01:49:36;;;;;;;5.13;1.40;;;15.40;99.90;;;;;;5071639;28;20052;-80
2023/08/10 01:52:33;;;;;;;6.35;1.77;;;15.40;99.90;;;;;;5068572;28;20670;-80
2023/08/10 01:55:20;;;;;;;7.43;1.60;;;15.40;99.90;;;;;;5070755;28;20131;-80
2023/08/10 01:58:06;;;;;;;8.27;1.60;;;15.40;99.90;;;;;;5038920;28;20063;-80
2023/08/10 02:00:53;;;;;;;7.60;1.95;;;15.40;99.90;;;;;;5068967;28;20146;-79
2023/08/10 02:03:39;;;;;;;6.45;1.83;;;15.30;99.90;;;;;;5070442;28;20048;-79
2023/08/10 02:06:26;;;;;;;6.72;1.42;;;15.30;99.90;;;;;;5056080;28;20044;-80
2023/08/10 02:09:12;;;;;;;5.15;1.20;;;15.30;99.90;;;;;;5071811;28;20131;-80
2023/08/10 02:11:58;;;;;;;4.70;1.15;;;15.40;99.90;;;;;;5070722;28;20055;-80
2023/08/10 02:14:44;;;;;;;6.35;1.85;;;15.40;99.90;;;;;;5070914;28;20128;-80
2023/08/10 02:17:35;;;;;;;4.95;1.50;;;15.40;99.90;;;;;;5069822;28;20054;-80
2023/08/10 02:20:21;;;;;;;9.77;2.33;;;15.40;99.90;;;;;;5071148;28;20055;-80
2023/08/10 02:23:08;;;;;;;8.57;1.63;;;15.40;99.90;;;;;;5055665;28;20051;-79
2023/08/10 02:25:54;;;;;;;10.35;2.90;;;15.40;99.90;;;;;;5071629;28;20061;-79
2023/08/10 02:28:40;;;;;;;5.05;1.65;;;15.40;99.90;;;;;;5069502;28;20081;-80
2023/08/10 02:31:26;;;;;;;6.25;1.58;;;15.50;99.90;;;;;;5069527;28;20500;-79
2023/08/10 02:34:12;;;;;;;9.45;2.08;;;15.50;99.90;;;;;;5071004;28;20080;-79
2023/08/10 02:36:58;;;;;;;7.25;1.80;;;15.40;99.90;;;;;;5051672;28;20519;-80
2023/08/10 02:39:45;;;;;;;6.88;1.55;;;15.50;99.90;;;;;;5070691;28;20524;-80
2023/08/10 02:42:31;;;;;;;7.20;1.63;;;15.40;99.90;;;;;;5051355;28;20056;-79
2023/08/10 02:45:17;;;;;;;7.57;1.70;;;15.40;99.90;;;;;;5069359;28;20394;-80
2023/08/10 02:48:03;;;;;;;12.75;1.52;;;15.50;99.90;;;;;;5052416;28;20048;-80
2023/08/10 02:50:49;;;;;;;7.07;1.67;;;15.50;99.90;;;;;;5071295;28;20044;-80
2023/08/10 02:53:35;;;;;;;3.50;1.13;;;15.50;99.90;;;;;;5036835;28;20140;-80
2023/08/10 02:56:21;;;;;;;6.28;1.35;;;15.50;99.90;;;;;;5070975;28;20055;-80
2023/08/10 02:59:08;;;;;;;6.22;1.50;;;15.50;99.90;;;;;;5055316;28;20048;-80
2023/08/10 03:01:55;;;;;;;7.47;2.10;;;15.50;99.90;;;;;;5068669;28;20052;-80
2023/08/10 03:04:41;;;;;;;8.75;1.88;;;15.60;99.90;;;;;;5051224;28;20068;-80
2023/08/10 03:07:27;;;;;;;9.02;1.63;;;15.60;99.90;;;;;;5054823;28;20884;-80
2023/08/10 03:10:13;;;;;;;8.90;2.03;;;15.60;99.90;;;;;;5069221;28;20408;-80
2023/08/10 03:12:59;;;;;;;7.00;1.65;;;15.50;99.90;;;;;;5070406;28;20048;-79
2023/08/10 03:15:45;;;;;;;8.68;1.67;;;15.60;99.90;;;;;;5038279;28;20377;-80
2023/08/10 03:18:32;;;;;;;8.65;1.83;;;15.60;99.90;;;;;;5071049;28;20048;-78
2023/08/10 03:21:18;;;;;;;9.63;1.58;;;15.60;99.90;;;;;;5069971;28;20045;-79
2023/08/10 03:24:04;;;;;;;10.80;3.25;;;15.60;99.90;;;;;;5038428;28;20496;-79
2023/08/10 03:26:50;;;;;;;7.13;1.73;;;15.60;99.90;;;;;;5070942;28;20448;-80
2023/08/10 03:29:36;;;;;;;8.63;2.15;;;15.60;99.90;;;;;;5069978;28;20049;-79
2023/08/10 03:32:23;;;;;;;4.88;2.30;;;15.60;99.90;;;;;;5071188;28;20493;-79
2023/08/10 03:35:09;;;;;;;9.35;2.30;;;15.50;99.90;;;;;;5055754;28;20059;-77
2023/08/10 03:37:55;;;;;;;10.02;2.20;;;15.60;99.90;;;;;;5074759;28;20044;-77
2023/08/10 03:40:41;;;;;;;9.38;2.10;;;15.50;99.90;;;;;;5073738;28;20045;-78
2023/08/10 03:43:27;;;;;;;6.22;2.10;;;15.50;99.90;;;;;;5073114;28;20393;-77
2023/08/10 03:46:13;;;;;;;6.07;1.70;;;15.60;99.90;;;;;;5055052;28;20125;-77
2023/08/10 03:48:59;;;;;;;8.93;2.20;;;15.50;99.90;;;;;;5074242;28;20094;-78
2023/08/10 03:51:45;;;;;;;9.90;2.47;;;15.50;99.90;;;;;;5073125;28;20056;-78
2023/08/10 03:54:31;;;;;;;4.82;1.90;;;15.60;99.90;;;;;;5073975;28;20072;-78
2023/08/10 03:57:18;;;;;;;11.80;2.58;;;15.50;99.90;;;;;;5073717;28;20049;-78
2023/08/10 04:00:05;;;;;;;5.57;1.70;;;15.50;99.90;;;;;;5072371;28;20049;-77
2023/08/10 04:02:51;;;;;;;9.65;1.90;;;15.50;99.90;;;;;;5073755;28;20040;-77
2023/08/10 04:05:37;;;;;;;10.65;1.95;;;15.50;99.90;;;;;;5073456;28;20110;-78
2023/08/10 04:08:24;;;;;;;7.05;1.92;;;15.50;99.90;;;;;;5073736;28;20063;-78
2023/08/10 04:11:10;;;;;;;10.77;1.90;;;15.50;99.90;;;;;;5073644;28;20560;-78
2023/08/10 04:13:56;;;;;;;8.63;2.00;;;15.40;99.90;;;;;;5072347;28;20151;-78
2023/08/10 04:16:42;;;;;;;10.27;2.40;;;15.50;99.90;;;;;;5040474;28;20144;-80
2023/08/10 04:19:28;;;;;;;9.50;2.58;;;15.50;99.90;;;;;;5072978;28;20044;-78
2023/08/10 04:22:14;;;;;;;8.07;2.00;;;15.50;99.90;;;;;;5072064;28;20514;-79
2023/08/10 04:25:02;;;;;;;6.13;2.45;;;15.40;99.90;;;;;;5074223;28;20067;-79
2023/08/10 04:27:48;;;;;;;7.53;2.30;;;15.40;99.90;;;;;;5073463;28;20504;-78
2023/08/10 04:30:34;;;;;;;6.55;2.20;;;15.40;99.90;;;;;;5053810;28;20396;-78
2023/08/10 04:33:20;;;;;;;11.65;2.63;;;15.40;99.90;;;;;;5072070;28;20057;-78
2023/08/10 04:36:07;;;;;;;7.15;2.00;;;15.40;99.90;;;;;;5057583;28;20135;-78
2023/08/10 04:38:53;;;;;;;10.90;2.15;;;15.40;99.90;;;;;;5071809;28;20052;-78
2023/08/10 04:41:39;;;;;;;8.02;2.33;;;15.40;99.90;;;;;;5072454;28;20071;-78
2023/08/10 04:44:25;;;;;;;8.07;2.00;;;15.40;99.90;;;;;;5070213;28;20408;-78
2023/08/10 04:47:12;;;;;;;7.32;2.45;;;15.50;99.90;;;;;;5055342;28;20052;-78
2023/08/10 04:49:58;;;;;;;10.45;2.53;;;15.50;99.90;;;;;;5057214;28;20106;-78
2023/08/10 04:52:44;;;;;;;10.48;2.03;;;15.50;99.90;;;;;;5073334;28;20082;-78
2023/08/10 04:55:30;;;;;;;10.48;2.60;;;15.40;99.90;;;;;;5055228;28;20063;-79
2023/08/10 04:58:16;;;;;;;9.82;2.50;;;15.40;99.90;;;;;;5071226;28;20088;-80
2023/08/10 05:01:02;;;;;;;9.10;2.65;;;15.50;99.90;;;;;;5071360;28;20049;-79
2023/08/10 05:03:48;;;;;;;8.88;2.55;;;15.50;99.90;;;;;;5072171;28;20048;-79
2023/08/10 05:06:36;;;;;;;12.77;2.45;;;15.50;99.90;;;;;;5055004;28;20079;-79
2023/08/10 05:09:23;;;;;;;7.93;2.72;;;15.50;99.90;;;;;;5040647;28;20048;-79
2023/08/10 05:12:09;;;;;;;8.25;2.55;;;15.60;99.90;;;;;;5074657;28;20052;-78
2023/08/10 05:14:55;;;;;;;9.02;2.30;;;15.60;99.90;;;;;;5040547;28;20504;-79
2023/08/10 05:17:41;;;;;;;10.93;2.80;;;15.50;99.90;;;;;;5040039;28;20052;-79
2023/08/10 05:20:27;;;;;;;10.25;2.33;;;15.50;99.90;;;;;;5070343;28;20048;-79
2023/08/10 05:23:13;;;;;;;5.63;2.08;;;15.50;99.90;;;;;;5070294;28;20404;-79
2023/08/10 05:26:00;;;;;;;9.55;2.30;;;15.50;99.90;;;;;;5071170;28;20083;-79
2023/08/10 05:28:46;;;;;;;8.93;2.60;;;15.60;99.90;;;;;;5069924;28;20381;-79
2023/08/10 05:31:33;;;;;;;7.15;2.75;;;15.60;99.90;;;;;;5071913;28;20066;-79
2023/08/10 05:34:19;;;;;;;10.98;2.72;;;15.70;99.90;;;;;;5057109;28;20045;-79
2023/08/10 05:37:05;;;;;;;8.45;3.00;;;15.70;99.90;;;;;;5071313;28;20071;-78
2023/08/10 05:39:51;;;;;;;6.22;2.45;;;15.70;99.90;;;;;;5070911;28;20086;-79
2023/08/10 05:42:42;;;;;;;10.02;2.45;;;15.70;99.90;;;;;;5071013;28;20052;-79
2023/08/10 05:45:28;;;;;;;5.75;1.98;;;15.80;99.90;;;;;;5054675;28;20079;-80
2023/08/10 05:48:15;;;;;;;7.45;1.92;;;15.80;99.90;;;;;;5072353;28;20071;-80
2023/08/10 05:51:01;;;;;;;7.90;2.50;;;15.90;99.90;;;;;;5071051;28;20048;-80
2023/08/10 05:53:47;;;;;;;7.40;2.13;;;16.00;99.90;;;;;;5071648;28;20044;-79
2023/08/10 05:56:33;;;;;;;9.80;2.40;;;16.10;99.90;;;;;;5055969;28;20055;-79
2023/08/10 05:59:20;;;;;;;12.32;2.50;;;16.20;99.90;;;;;;5071049;28;20052;-79
2023/08/10 06:02:06;;;;;;;9.02;2.33;;;16.40;99.90;;;;;;5070805;28;20056;-79
2023/08/10 06:04:52;;;;;;;6.65;2.10;;;16.50;99.90;;;;;;5051543;28;20040;-79
2023/08/10 06:07:38;;;;;;;9.93;2.30;;;16.50;99.90;;;;;;5070550;28;20044;-79
2023/08/10 06:10:25;;;;;;;7.72;2.40;;;16.50;99.90;;;;;;5071166;28;20044;-79
2023/08/10 06:13:11;;;;;;;7.97;2.30;;;16.60;99.90;;;;;;5038312;28;20056;-79
2023/08/10 06:15:58;;;;;;;6.60;1.75;;;16.70;99.90;;;;;;5071082;28;20048;-78
2023/08/10 06:18:44;;;;;;;8.27;2.15;;;16.80;99.90;;;;;;5040159;28;20059;-79
2023/08/10 06:21:30;;;;;;;8.40;2.03;;;16.80;99.90;;;;;;5052329;28;20062;-79
2023/08/10 06:24:16;;;;;;;9.05;2.35;;;17.00;99.90;;;;;;5069785;28;20047;-79
2023/08/10 06:27:02;;;;;;;5.50;1.88;;;17.20;99.90;;;;;;5069276;28;20094;-79
2023/08/10 06:29:49;;;;;;;8.77;2.03;;;17.30;99.90;;;;;;5068432;28;20055;-79
2023/08/10 06:32:35;;;;;;;6.25;1.73;;;17.50;99.90;;;;;;5053355;28;20075;-79
2023/08/10 06:35:22;;;;;;;5.55;1.48;;;17.60;99.90;;;;;;5051756;28;20420;-79
2023/08/10 06:38:08;;;;;;;6.50;1.35;;;17.70;99.90;;;;;;5071248;28;20059;-79
2023/08/10 06:40:54;;;;;;;8.90;1.60;;;17.90;99.90;;;;;;5069380;28;20048;-79
2023/08/10 06:43:40;;;;;;;7.13;1.30;;;18.00;99.90;;;;;;5053559;28;20044;-79
2023/08/10 06:46:26;;;;;;;8.80;1.55;;;18.10;99.90;;;;;;5052836;28;20129;-79
2023/08/10 06:49:12;;;;;;;6.65;1.30;;;18.10;99.90;;;;;;5051864;28;20044;-79
2023/08/10 06:51:58;;;;;;;6.93;1.20;;;18.30;99.90;;;;;;5055609;28;20060;-79
2023/08/10 06:54:45;;;;;;;7.68;1.35;;;18.30;99.90;;;;;;5069535;28;20050;-79
2023/08/10 06:57:31;;;;;;;8.35;1.35;;;18.30;99.90;;;;;;5056652;28;20055;-78
2023/08/10 07:00:20;;;;;;;8.27;1.60;;;18.50;99.90;;;;;;5052771;28;20052;-79
2023/08/10 07:03:06;;;;;;;6.10;1.63;;;18.60;99.90;;;;;;5069234;28;20135;-78
2023/08/10 07:05:52;;;;;;;10.45;2.90;;;18.60;99.90;;;;;;5069892;28;20118;-79
2023/08/10 07:08:39;;;;;;;5.95;1.38;;;18.60;99.90;;;;;;5074727;28;20052;-78
2023/08/10 07:11:25;;;;;;;5.05;1.30;;;18.90;99.90;;;;;;5060390;28;20126;-79
2023/08/10 07:14:11;;;;;;;7.97;1.70;;;19.00;99.90;;;;;;5074997;28;20048;-78
2023/08/10 07:16:57;;;;;;;8.75;1.40;;;19.10;99.90;;;;;;5074721;28;20086;-79
2023/08/10 07:19:43;;;;;;;7.63;1.52;;;19.40;99.90;;;;;;5074595;28;20052;-79
2023/08/10 07:22:29;;;;;;;4.07;1.20;;;19.70;99.90;;;;;;5073836;28;20385;-79
2023/08/10 07:25:17;;;;;;;7.22;1.40;;;19.70;99.90;;;;;;5073612;28;20040;-79
2023/08/10 07:28:06;;;;;;;9.05;1.52;;;19.70;99.90;;;;;;5075269;28;20048;-79
2023/08/10 07:30:53;;;;;;;8.48;1.20;;;19.80;99.90;;;;;;5073976;28;20083;-79
2023/08/10 07:33:39;;;;;;;5.97;1.42;;;19.80;99.90;;;;;;5056911;28;20052;-78
2023/08/10 07:36:26;;;;;;;7.72;1.02;;;19.90;99.90;;;;;;5074359;28;20412;-78
2023/08/10 07:39:13;;;;;;;6.85;1.35;;;19.70;99.90;;;;;;5074516;28;20576;-78
2023/08/10 07:41:59;;;;;;;4.45;0.98;;;19.60;99.90;;;;;;5073212;28;20452;-78
2023/08/10 07:44:45;;;;;;;4.13;1.17;;;19.60;99.90;;;;;;5055178;28;20063;-79
2023/08/10 07:47:32;;;;;;;7.35;1.35;;;19.40;99.90;;;;;;5042986;28;20496;-79
2023/08/10 07:50:18;;;;;;;6.15;1.40;;;19.40;99.90;;;;;;5073302;28;20372;-79
2023/08/10 07:53:04;;;;;;;7.70;1.48;;;19.40;99.90;;;;;;5054193;28;20571;-79
2023/08/10 07:55:50;;;;;;;5.95;1.20;;;19.30;99.90;;;;;;5057990;28;20048;-79
2023/08/10 07:58:36;;;;;;;5.88;1.20;;;19.30;99.90;;;;;;5073753;28;20389;-80
2023/08/10 08:01:22;;;;;;;10.05;1.70;;;19.40;99.90;;;;;;5055788;28;20420;-79
2023/08/10 08:04:09;;;;;;;5.00;1.23;;;19.40;99.90;;;;;;5073866;28;20048;-79
2023/08/10 08:06:55;;;;;;;5.43;1.10;;;19.50;99.90;;;;;;5073401;28;20048;-79
2023/08/10 08:09:41;;;;;;;6.30;1.20;;;19.40;99.90;;;;;;5073340;28;20044;-79
2023/08/10 08:12:28;;;;;;;4.47;0.85;;;19.40;99.90;;;;;;5074149;28;20500;-78
2023/08/10 08:15:14;;;;;;;5.35;1.00;;;19.30;99.90;;;;;;5072950;28;20052;-78
2023/08/10 08:18:37;;;;;;;6.28;1.30;;;19.40;99.90;;;;;;5071492;28;20079;-79
2023/08/10 08:21:27;;;;;;;4.25;1.00;;;19.40;99.90;;;;;;5073478;28;20045;-79
2023/08/10 08:24:13;;;;;;;6.82;0.95;;;19.40;99.90;;;;;;5042350;28;20135;-78
2023/08/10 08:26:59;;;;;;;4.07;1.50;;;19.40;99.90;;;;;;5072972;28;20057;-79
2023/08/10 08:29:45;;;;;;;4.75;1.05;;;19.50;99.90;;;;;;5072160;28;20044;-79
2023/08/10 08:32:31;;;;;;;5.50;1.20;;;19.60;99.90;;;;;;5053803;28;20048;-78
2023/08/10 08:35:17;;;;;;;5.38;1.20;;;19.50;99.90;;;;;;5041021;28;20119;-78
2023/08/10 08:38:05;;;;;;;7.03;1.50;;;19.50;99.90;;;;;;5073360;28;20059;-79
2023/08/10 08:40:52;;;;;;;6.82;1.17;;;19.50;99.90;;;;;;5054989;28;20496;-78
2023/08/10 08:43:39;;;;;;;7.72;1.38;;;19.50;99.90;;;;;;5071970;28;20091;-78
2023/08/10 08:46:30;;;;;;;3.88;1.10;;;19.50;99.90;;;;;;5072989;28;20434;-78
2023/08/10 08:49:17;;;;;;;7.35;1.50;;;19.40;99.90;;;;;;5054757;28;20055;-78
2023/08/10 08:52:03;;;;;;;2.85;1.17;;;19.40;99.90;;;;;;5072332;28;20052;-79
2023/08/10 08:54:50;;;;;;;4.57;1.05;;;19.60;99.90;;;;;;5071620;28;20051;-77
2023/08/10 08:57:36;;;;;;;8.13;1.10;;;19.50;99.90;;;;;;5055841;28;20087;-77
2023/08/10 09:00:22;;;;;;;4.43;0.90;;;19.50;99.90;;;;;;5070716;28;20103;-77
2023/08/10 09:03:09;;;;;;;5.70;1.30;;;19.50;99.90;;;;;;5071196;28;20052;-77
2023/08/10 09:05:55;;;;;;;6.07;1.08;;;19.60;99.90;;;;;;5072123;28;20527;-77
2023/08/10 09:08:41;;;;;;;7.60;2.00;;;19.70;99.90;;;;;;5053214;28;20075;-78
2023/08/10 09:11:28;;;;;;;4.47;0.80;;;19.80;99.90;;;;;;5072068;28;20088;-78
2023/08/10 09:14:14;;;;;;;7.25;1.67;;;19.80;99.90;;;;;;5072632;28;20048;-78
2023/08/10 09:17:03;;;;;;;4.97;1.33;;;19.90;99.90;;;;;;5054394;28;20059;-78
2023/08/10 09:19:49;;;;;;;9.70;1.23;;;19.90;99.90;;;;;;5054145;28;20049;-77
2023/08/10 09:22:40;;;;;;;5.43;1.00;;;20.00;99.90;;;;;;5057306;28;20080;-78
2023/08/10 09:25:26;;;;;;;8.77;1.17;;;20.20;99.90;;;;;;5072000;28;20511;-78
2023/08/10 09:28:12;;;;;;;7.90;1.23;;;20.10;99.90;;;;;;5072118;28;20098;-77
2023/08/10 09:30:58;;;;;;;7.13;1.20;;;20.20;99.90;;;;;;5054046;28;20514;-77
2023/08/10 09:33:45;;;;;;;3.45;0.90;;;20.20;99.90;;;;;;5070208;28;20420;-77
2023/08/10 09:36:31;;;;;;;4.78;1.20;;;20.30;99.90;;;;;;5070566;28;20487;-79
2023/08/10 09:39:17;;;;;;;7.68;1.00;;;20.20;99.90;;;;;;5040779;28;20040;-78
2023/08/10 09:42:03;;;;;;;3.05;1.00;;;20.30;99.90;;;;;;5070303;28;20072;-78
2023/08/10 09:44:52;;;;;;;5.82;1.33;;;20.30;99.90;;;;;;5071758;28;20048;-77
2023/08/10 09:47:42;;;;;;;5.63;0.95;;;20.60;99.90;;;;;;5070755;28;20063;-78
2023/08/10 09:50:34;;;;;;;8.05;1.15;;;20.40;99.90;;;;;;5071967;28;20053;-79
2023/08/10 09:53:20;;;;;;;3.33;1.08;;;20.40;99.90;;;;;;5070024;28;20135;-78
2023/08/10 09:56:07;;;;;;;13.00;2.65;;;20.60;99.90;;;;;;5051928;28;20064;-78
2023/08/10 09:58:53;;;;;;;5.63;1.17;;;20.50;99.90;;;;;;5052456;28;20137;-78
2023/08/10 10:01:40;;;;;;;9.90;1.95;;;20.50;99.90;;;;;;5056906;28;20052;-78
2023/08/10 10:04:28;;;;;;;6.72;1.50;;;20.60;99.90;;;;;;5052075;28;20106;-79
2023/08/10 10:07:17;;;;;;;4.25;1.08;;;20.90;99.90;;;;;;5055054;28;20457;-78
2023/08/10 10:10:08;;;;;;;5.80;1.40;;;20.90;99.90;;;;;;5052945;28;20060;-78
2023/08/10 10:12:55;;;;;;;5.43;1.08;;;20.90;99.90;;;;;;5070510;28;20496;-78
2023/08/10 10:15:45;;;;;;;6.93;1.45;;;20.80;99.90;;;;;;5070113;28;20044;-78
2023/08/10 10:18:31;;;;;;;5.03;1.15;;;21.00;99.90;;;;;;5071449;28;20087;-78
2023/08/10 10:21:18;;;;;;;4.90;1.10;;;21.30;99.90;;;;;;5071472;28;20083;-78
2023/08/10 10:24:04;;;;;;;6.60;1.30;;;21.40;99.90;;;;;;5052421;28;20052;-78
2023/08/10 10:27:05;;;;;;;3.50;1.02;;;21.70;99.90;;;;;;5070411;28;20057;-78
2023/08/10 10:29:55;;;;;;;4.32;1.40;;;21.70;99.90;;;;;;5040502;28;20447;-78
2023/08/10 10:32:47;;;;;;;5.45;1.10;;;21.80;99.90;;;;;;5053130;28;20055;-78
2023/08/10 10:35:33;;;;;;;3.95;0.98;;;21.80;99.70;;;;;;5069470;28;20484;-78
2023/08/10 10:38:20;;;;;;;5.97;1.17;;;22.00;99.90;;;;;;5070341;28;20053;-78
2023/08/10 10:41:13;;;;;;;2.78;1.00;;;22.00;99.80;;;;;;5068362;28;20504;-78
2023/08/10 10:44:02;;;;;;;5.35;1.42;;;22.20;99.40;;;;;;5068543;28;20145;-78
2023/08/10 10:46:48;;;;;;;6.45;1.23;;;22.10;99.00;;;;;;5070882;28;20048;-78
2023/08/10 10:49:34;;;;;;;4.95;1.33;;;22.30;99.10;;;;;;5051634;28;20138;-78
2023/08/10 10:52:36;;;;;;;7.63;1.10;;;22.60;98.80;;;;;;5069723;28;20091;-78
2023/08/10 10:55:24;;;;;;;5.25;1.20;;;22.60;98.30;;;;;;5070750;28;20428;-79
2023/08/10 10:58:12;;;;;;;3.38;1.17;;;22.50;98.40;;;;;;5069627;28;20184;-78
2023/08/10 11:00:58;;;;;;;4.57;1.20;;;22.50;99.00;;;;;;5068685;28;20063;-78
2023/08/10 11:03:54;;;;;;;4.45;0.90;;;22.40;98.70;;;;;;5070030;28;20091;-78
2023/08/10 11:06:40;;;;;;;3.40;1.00;;;22.60;98.70;;;;;;5070981;28;20063;-78
2023/08/10 11:09:26;;;;;;;5.28;1.52;;;22.60;98.50;;;;;;5051991;28;20040;-79
2023/08/10 11:12:12;;;;;;;5.10;1.15;;;22.70;98.40;;;;;;5068207;28;20056;-79
2023/08/10 11:14:59;;;;;;;4.30;1.20;;;22.70;98.40;;;;;;5070190;28;20407;-78
2023/08/10 11:17:51;;;;;;;4.93;1.40;;;22.50;98.30;;;;;;5070572;28;20470;-78
2023/08/10 11:20:45;;;;;;;8.75;1.92;;;22.20;98.20;;;;;;5052597;28;20040;-77
2023/08/10 11:23:31;;;;;;;4.18;1.08;;;22.20;99.00;;;;;;5069877;28;20086;-79
2023/08/10 11:26:19;;;;;;;5.10;1.23;;;22.20;98.80;;;;;;5054867;28;20135;-78
2023/08/10 11:29:05;;;;;;;4.57;1.10;;;22.20;99.00;;;;;;5069154;28;20147;-78
2023/08/10 11:31:54;;;;;;;6.95;1.38;;;22.20;98.80;;;;;;5070705;28;20156;-79
2023/08/10 11:34:40;;;;;;;8.93;1.70;;;22.10;99.00;;;;;;5069009;28;20055;-79
2023/08/10 11:37:30;;;;;;;5.25;1.35;;;22.30;98.90;;;;;;5050467;28;20060;-78
2023/08/10 11:40:21;;;;;;;6.97;1.83;;;22.60;98.40;;;;;;5052506;28;20048;-79
2023/08/10 11:43:11;;;;;;;5.75;1.45;;;22.70;98.30;;;;;;5071154;28;20045;-78
2023/08/10 11:45:57;;;;;;;7.15;1.45;;;22.30;98.00;;;;;;5070920;28;20415;-78
2023/08/10 11:48:43;;;;;;;5.63;1.55;;;22.30;98.60;;;;;;5069318;28;20056;-79
2023/08/10 11:51:34;;;;;;;4.03;1.50;;;22.20;98.80;;;;;;5055563;28;20060;-79
2023/08/10 11:54:28;;;;;;;5.18;1.35;;;22.20;99.00;;;;;;5054792;28;20135;-82
2023/08/10 11:57:14;;;;;;;3.53;1.05;;;22.30;98.80;;;;;;5074504;28;20405;-84
2023/08/10 12:00:30;;;;;;;5.57;1.27;;;22.30;98.90;;;;;;5073933;28;20044;-77
2023/08/10 12:03:34;;;;;;;7.18;1.83;;;22.40;99.00;;;;;;5072653;28;20518;-76
2023/08/10 12:06:20;;;;;;;5.25;1.33;;;22.30;99.40;;;;;;5073218;28;20514;-76
2023/08/10 12:09:11;;;;;;;7.85;1.85;;;22.50;99.30;;;;;;5073129;28;20133;-76
2023/08/10 12:11:58;;;;;;;6.07;1.65;;;22.50;99.00;;;;;;5055658;28;20110;-75
2023/08/10 12:14:44;;;;;;;8.65;1.48;;;22.30;99.20;;;;;;5073955;28;20413;-76
2023/08/10 12:17:30;;;;;;;6.97;2.58;;;21.90;99.50;;;;;;5072329;28;20048;-78
2023/08/10 12:20:16;;;;;;;8.23;2.17;;;21.80;99.80;;;;;;5052015;28;20049;-77
2023/08/10 12:23:04;;;;;;;7.97;2.42;;;21.70;99.90;;;;;;5070182;28;20052;-75
2023/08/10 12:25:50;;;;;;;5.50;2.65;;;21.60;99.90;;;;;;5073007;28;20048;-73
2023/08/10 12:28:36;;;;;;;9.60;3.38;;;21.40;99.90;;;;;;5071869;28;20493;-73
2023/08/10 12:31:24;;;;;;;7.75;2.30;;;21.20;99.90;;;;;;5055225;28;20083;-75
2023/08/10 12:34:11;;;;;;;8.60;2.65;;;21.10;99.90;;;;;;5072718;28;20556;-74
2023/08/10 12:36:57;;;;;;;4.65;1.65;;;21.00;99.90;;;;;;5053137;28;20044;-79
2023/08/10 12:39:43;;;;;;;6.97;1.80;;;21.30;99.90;;;;;;5072084;28;20143;-74
2023/08/10 12:42:29;;;;;;;6.70;2.33;;;21.40;99.90;;;;;;5073569;27;20456;-78
2023/08/10 12:45:17;;;;;;;7.00;2.33;;;21.30;99.90;;;;;;5053705;28;20052;-76
2023/08/10 12:48:03;;;;;;;8.60;1.80;;;21.20;99.90;;;;;;5071609;28;20078;-77
2023/08/10 12:50:50;;;;;;;7.82;1.95;;;21.20;99.90;;;;;;5040773;28;20037;-75
2023/08/10 12:53:36;;;;;;;6.35;2.03;;;21.10;99.90;;;;;;5057289;28;20095;-74
2023/08/10 12:56:22;;;;;;;5.65;2.35;;;21.10;99.90;;;;;;5071615;28;20064;-75
2023/08/10 12:59:08;;;;;;;8.35;2.50;;;21.10;99.90;;;;;;5053194;28;20061;-75
2023/08/10 13:01:54;;;;;;;6.78;2.03;;;20.90;99.90;;;;;;5070803;28;20059;-72
2023/08/10 13:04:41;;;;;;;9.63;3.00;;;20.90;99.90;;;;;;5070065;28;20559;-75
2023/08/10 13:07:27;;;;;;;7.80;3.10;;;21.10;99.90;;;;;;5051569;28;20139;-75
2023/08/10 13:10:15;;;;;;;6.38;3.03;;;21.00;99.90;;;;;;5070858;28;20114;-77
2023/08/10 13:13:01;;;;;;;6.55;2.72;;;21.00;99.90;;;;;;5054014;28;20088;-75
2023/08/10 13:15:47;;;;;;;7.65;3.00;;;21.00;99.90;;;;;;5054627;28;20044;-75
2023/08/10 13:18:33;;;;;;;7.95;2.63;;;21.10;99.90;;;;;;5072186;28;20048;-75
2023/08/10 13:21:19;;;;;;;7.45;3.20;;;21.10;99.90;;;;;;5055292;28;20125;-76
2023/08/10 13:24:05;;;;;;;9.00;3.38;;;21.30;99.90;;;;;;5054010;28;20067;-76
2023/08/10 13:26:52;;;;;;;9.32;2.50;;;21.10;99.90;;;;;;5072124;28;20106;-76
2023/08/10 13:29:38;;;;;;;9.85;2.80;;;21.20;99.90;;;;;;5058274;28;20083;-77
2023/08/10 13:32:24;;;;;;;10.63;2.75;;;21.20;99.90;;;;;;5071957;28;20048;-76
2023/08/10 13:35:10;;;;;;;7.18;3.28;;;21.10;99.90;;;;;;5073911;27;20491;-77
2023/08/10 13:37:56;;;;;;;9.70;3.22;;;21.10;99.90;;;;;;5073876;27;20123;-77
2023/08/10 13:40:42;;;;;;;10.82;3.45;;;21.20;99.90;;;;;;5051897;28;20053;-75
2023/08/10 13:43:28;;;;;;;6.30;3.17;;;21.00;99.90;;;;;;5069892;28;20051;-74
2023/08/10 13:46:15;;;;;;;7.97;2.92;;;21.00;99.90;;;;;;5066143;28;20037;-75
2023/08/10 13:49:01;;;;;;;8.85;2.80;;;21.10;99.90;;;;;;5046027;28;20056;-76
2023/08/10 13:51:48;;;;;;;9.93;2.78;;;21.10;99.90;;;;;;5063067;28;20052;-76
2023/08/10 13:54:34;;;;;;;5.63;2.40;;;21.30;99.90;;;;;;5070295;28;20056;-78
2023/08/10 13:57:20;;;;;;;6.53;2.38;;;21.40;99.90;;;;;;5051067;28;20060;-79
2023/08/10 14:00:07;;;;;;;9.07;3.20;;;21.40;99.90;;;;;;5050945;28;20052;-80
2023/08/10 14:02:54;;;;;;;13.43;4.32;;;21.50;99.90;;;;;;5036000;28;20520;-79
2023/08/10 14:05:40;;;;;;;6.85;3.22;;;21.60;99.90;;;;;;5035031;28;20056;-81
2023/08/10 14:08:26;;;;;;;7.22;3.17;;;21.50;99.90;;;;;;5041344;28;20450;-81
2023/08/10 14:11:12;;;;;;;6.30;2.67;;;21.50;99.90;;;;;;5069638;28;20048;-81
2023/08/10 14:13:58;;;;;;;7.53;2.95;;;21.50;99.90;;;;;;5071047;28;20165;-81
2023/08/10 14:16:45;;;;;;;8.02;3.47;;;21.70;99.90;;;;;;5056261;28;20051;-81
2023/08/10 14:19:31;;;;;;;9.50;2.95;;;21.80;99.90;;;;;;5071077;28;20155;-81
2023/08/10 14:22:17;;;;;;;7.55;2.83;;;21.80;99.90;;;;;;5070942;28;20048;-81
2023/08/10 14:25:04;;;;;;;8.57;3.88;;;22.10;99.90;;;;;;5056808;28;20047;-80
2023/08/10 14:27:50;;;;;;;12.90;5.18;;;22.40;99.90;;;;;;5070617;28;20051;-80